createdAt,value
2017-09-21T00:01:51.299Z,38.10
2017-09-21T00:04:18.448Z,63.83
2017-09-21T00:06:45.377Z,48.57
2017-09-21T00:09:12.213Z,69.73
2017-09-21T00:11:39.070Z,58.73
2017-09-21T00:14:05.937Z,44.47
2017-09-21T00:16:33.077Z,51.07
2017-09-21T00:18:59.904Z,53.63
2017-09-21T00:21:26.761Z,60.23
2017-09-21T00:23:53.653Z,50.40
2017-09-21T00:26:20.505Z,49.70
2017-09-21T00:28:47.410Z,49.53
2017-09-21T00:31:14.548Z,58.10
2017-09-21T00:33:41.697Z,52.13
2017-09-21T00:36:08.849Z,47.40
2017-09-21T00:38:35.698Z,51.87
2017-09-21T00:41:02.561Z,56.43
2017-09-21T00:43:29.423Z,49.43
2017-09-21T00:45:56.281Z,57.23
2017-09-21T00:48:23.473Z,48.03
2017-09-21T00:50:50.373Z,49.57
2017-09-21T00:53:17.253Z,47.87
2017-09-21T00:55:44.409Z,58.20
2017-09-21T00:58:11.308Z,58.23
2017-09-21T01:00:38.406Z,66.23
2017-09-21T01:03:05.269Z,53.03
2017-09-21T01:05:32.214Z,44.30
2017-09-21T01:07:59.058Z,43.77
2017-09-21T01:10:25.917Z,58.10
2017-09-21T01:12:52.817Z,58.93
2017-09-21T01:15:19.681Z,41.87
2017-09-21T01:17:46.582Z,52.70
2017-09-21T01:20:13.758Z,48.60
2017-09-21T01:22:40.913Z,45.50
2017-09-21T01:25:07.998Z,46.37
2017-09-21T01:27:34.901Z,56.40
2017-09-21T01:30:01.798Z,62.50
2017-09-21T01:32:28.674Z,68.13
2017-09-21T01:34:55.841Z,54.93
2017-09-21T01:37:22.704Z,51.03
2017-09-21T01:39:49.570Z,54.43
2017-09-21T01:42:16.482Z,50.37
2017-09-21T01:44:43.400Z,64.27
2017-09-21T01:47:10.574Z,54.10
2017-09-21T01:49:37.439Z,47.03
2017-09-21T01:52:04.669Z,44.00
2017-09-21T01:54:31.534Z,67.27
2017-09-21T01:56:58.765Z,53.67
2017-09-21T01:59:25.913Z,46.83
2017-09-21T02:01:52.793Z,54.23
2017-09-21T02:04:19.666Z,62.67
2017-09-21T02:06:46.761Z,54.80
2017-09-21T02:09:13.650Z,53.47
2017-09-21T02:11:40.847Z,54.23
2017-09-21T02:14:07.760Z,63.60
2017-09-21T02:16:34.629Z,66.23
2017-09-21T02:19:01.781Z,57.93
2017-09-21T02:21:28.665Z,64.37
2017-09-21T02:23:55.550Z,62.77
2017-09-21T02:26:22.438Z,45.60
2017-09-21T02:28:49.305Z,56.70
2017-09-21T02:31:16.153Z,52.57
2017-09-21T02:33:43.014Z,90.20
2017-09-21T02:36:09.858Z,103.10
2017-09-21T02:38:36.729Z,54.67
2017-09-21T02:41:03.893Z,72.20
2017-09-21T02:43:30.777Z,52.20
2017-09-21T02:45:57.652Z,52.13
2017-09-21T02:48:24.502Z,58.53
2017-09-21T02:50:51.362Z,52.97
2017-09-21T02:53:18.210Z,52.27
2017-09-21T02:55:45.353Z,45.60
2017-09-21T02:58:12.193Z,54.03
2017-09-21T03:00:39.050Z,58.10
2017-09-21T03:03:05.941Z,53.60
2017-09-21T03:05:32.810Z,67.80
2017-09-21T03:07:59.669Z,77.13
2017-09-21T03:10:26.521Z,56.40
2017-09-21T03:12:53.386Z,63.53
2017-09-21T03:15:20.237Z,64.43
2017-09-21T03:17:47.117Z,71.17
2017-09-21T03:20:13.994Z,77.20
2017-09-21T03:22:40.881Z,77.03
2017-09-21T03:25:07.743Z,81.30
2017-09-21T03:27:34.569Z,66.73
2017-09-21T03:30:01.437Z,80.23
2017-09-21T03:32:28.305Z,70.13
2017-09-21T03:34:55.452Z,64.87
2017-09-21T03:37:22.318Z,62.27
2017-09-21T03:39:49.211Z,83.73
2017-09-21T03:42:16.069Z,66.03
2017-09-21T03:44:42.917Z,59.87
2017-09-21T03:47:09.770Z,61.13
2017-09-21T03:49:36.925Z,56.33
2017-09-21T03:52:03.796Z,62.37
2017-09-21T03:54:30.922Z,77.27
2017-09-21T03:56:57.761Z,66.60
2017-09-21T03:59:24.621Z,64.63
2017-09-21T04:01:51.861Z,59.53
2017-09-21T04:04:18.717Z,56.50
2017-09-21T04:06:45.549Z,47.93
2017-09-21T04:09:12.694Z,64.90
2017-09-21T04:11:40.499Z,72.63
2017-09-21T04:14:07.609Z,91.97
2017-09-21T04:16:34.537Z,75.33
2017-09-21T04:19:01.702Z,73.23
2017-09-21T04:21:28.557Z,61.73
2017-09-21T04:23:55.425Z,51.70
2017-09-21T04:26:22.546Z,54.17
2017-09-21T04:28:49.406Z,59.27
2017-09-21T04:31:16.301Z,53.50
2017-09-21T04:33:43.134Z,64.33
2017-09-21T04:36:10.217Z,55.17
2017-09-21T04:38:37.369Z,48.90
2017-09-21T04:41:04.521Z,54.73
2017-09-21T04:43:31.388Z,66.90
2017-09-21T04:45:58.245Z,56.97
2017-09-21T04:48:25.102Z,55.27
2017-09-21T04:50:51.953Z,52.97
2017-09-21T04:53:19.040Z,56.07
2017-09-21T04:55:45.899Z,53.10
2017-09-21T04:58:12.780Z,63.23
2017-09-21T05:00:39.642Z,68.90
2017-09-21T05:03:06.477Z,73.37
2017-09-21T05:05:33.349Z,57.23
2017-09-21T05:08:00.258Z,76.17
2017-09-21T05:10:27.142Z,51.00
2017-09-21T05:12:54.017Z,52.87
2017-09-21T05:15:21.250Z,45.23
2017-09-21T05:17:48.329Z,42.13
2017-09-21T05:20:15.181Z,48.70
2017-09-21T05:22:42.409Z,54.63
2017-09-21T05:25:09.547Z,60.97
2017-09-21T05:27:36.405Z,53.10
2017-09-21T05:30:03.266Z,52.77
2017-09-21T05:32:30.385Z,55.47
2017-09-21T05:34:57.250Z,60.60
2017-09-21T05:37:24.137Z,55.30
2017-09-21T05:39:50.997Z,52.50
2017-09-21T05:42:17.861Z,51.10
2017-09-21T05:44:44.766Z,44.63
2017-09-21T05:47:11.633Z,44.67
2017-09-21T05:49:38.485Z,43.13
2017-09-21T05:52:05.361Z,49.90
2017-09-21T05:54:32.480Z,51.63
2017-09-21T05:56:59.634Z,47.17
2017-09-21T05:59:26.778Z,42.47
2017-09-21T06:01:53.929Z,43.70
2017-09-21T06:04:21.082Z,49.73
2017-09-21T06:06:47.953Z,36.37
2017-09-21T06:09:15.034Z,40.20
2017-09-21T06:11:42.107Z,61.70
2017-09-21T06:14:09.001Z,32.40
2017-09-21T06:16:35.833Z,41.67
2017-09-21T06:19:02.673Z,35.93
2017-09-21T06:21:29.769Z,38.87
2017-09-21T06:23:56.610Z,63.17
2017-09-21T06:26:23.466Z,43.27
2017-09-21T06:28:50.385Z,46.87
2017-09-21T06:31:17.226Z,48.60
2017-09-21T06:33:44.075Z,48.07
2017-09-21T06:36:10.937Z,41.77
2017-09-21T06:38:37.785Z,37.23
2017-09-21T06:41:04.853Z,38.73
2017-09-21T06:43:32.313Z,33.70
2017-09-21T06:45:59.461Z,43.83
2017-09-21T06:48:26.312Z,38.80
2017-09-21T06:50:53.661Z,40.30
2017-09-21T06:53:20.773Z,36.00
2017-09-21T06:55:47.626Z,39.60
2017-09-21T06:58:14.481Z,31.30
2017-09-21T07:00:41.641Z,33.10
2017-09-21T07:03:08.487Z,34.73
2017-09-21T07:05:35.636Z,41.83
2017-09-21T07:08:02.477Z,34.13
2017-09-21T07:10:29.371Z,30.77
2017-09-21T07:12:56.265Z,34.60
2017-09-21T07:15:23.132Z,32.50
2017-09-21T07:17:50.001Z,37.70
2017-09-21T07:20:16.856Z,30.60
2017-09-21T07:22:43.687Z,29.03
2017-09-21T07:25:10.788Z,30.27
2017-09-21T07:27:37.671Z,34.00
2017-09-21T07:30:04.589Z,39.67
2017-09-21T07:32:31.733Z,30.60
2017-09-21T07:34:58.594Z,37.77
2017-09-21T07:37:25.451Z,37.67
2017-09-21T07:39:52.565Z,36.00
2017-09-21T07:42:19.717Z,36.73
2017-09-21T07:44:46.585Z,36.37
2017-09-21T07:47:13.710Z,35.40
2017-09-21T07:49:40.610Z,34.20
2017-09-21T07:52:07.701Z,39.43
2017-09-21T07:54:34.541Z,34.27
2017-09-21T07:57:01.976Z,32.47
2017-09-21T07:59:28.825Z,38.37
2017-09-21T08:01:55.697Z,37.63
2017-09-21T08:04:22.549Z,35.47
2017-09-21T08:06:49.689Z,40.93
2017-09-21T08:09:16.854Z,33.30
2017-09-21T08:11:43.738Z,36.60
2017-09-21T08:14:10.568Z,42.43
2017-09-21T08:16:37.673Z,36.13
2017-09-21T08:19:04.821Z,45.73
2017-09-21T08:21:31.696Z,41.50
2017-09-21T08:23:58.560Z,41.10
2017-09-21T08:26:25.414Z,44.17
2017-09-21T08:28:52.281Z,38.60
2017-09-21T08:31:19.114Z,35.63
2017-09-21T08:33:45.969Z,35.43
2017-09-21T08:36:13.134Z,49.37
2017-09-21T08:38:39.969Z,41.57
2017-09-21T08:41:06.850Z,38.77
2017-09-21T08:43:33.762Z,48.30
2017-09-21T08:46:00.609Z,43.93
2017-09-21T08:48:27.758Z,40.60
2017-09-21T08:50:55.162Z,38.60
2017-09-21T08:53:22.045Z,40.27
2017-09-21T08:55:48.888Z,48.57
2017-09-21T08:58:15.794Z,43.50
2017-09-21T09:00:42.907Z,37.83
2017-09-21T09:03:09.826Z,39.00
2017-09-21T09:05:36.681Z,39.17
2017-09-21T09:08:03.531Z,42.20
2017-09-21T09:10:30.385Z,52.37
2017-09-21T09:12:57.258Z,44.70
2017-09-21T09:15:24.361Z,40.37
2017-09-21T09:17:51.515Z,39.07
2017-09-21T09:20:18.348Z,39.53
2017-09-21T09:22:45.174Z,42.33
2017-09-21T09:25:12.046Z,42.03
2017-09-21T09:27:39.193Z,41.03
2017-09-21T09:30:06.078Z,41.23
2017-09-21T09:32:33.189Z,46.43
2017-09-21T09:35:00.051Z,46.73
2017-09-21T09:37:26.927Z,38.43
2017-09-21T09:39:54.129Z,42.83
2017-09-21T09:42:20.973Z,46.20
2017-09-21T09:44:47.870Z,44.77
2017-09-21T09:47:15.061Z,40.30
2017-09-21T09:49:41.953Z,41.00
2017-09-21T09:52:08.789Z,41.80
2017-09-21T09:54:35.667Z,42.43
2017-09-21T09:57:02.537Z,35.00
2017-09-21T09:59:29.398Z,42.17
2017-09-21T10:01:56.534Z,37.53
2017-09-21T10:04:23.377Z,39.70
2017-09-21T10:06:50.224Z,42.60
2017-09-21T10:09:17.171Z,39.20
2017-09-21T10:11:44.025Z,37.63
2017-09-21T10:14:11.153Z,38.73
2017-09-21T10:16:38.036Z,35.83
2017-09-21T10:19:04.904Z,40.90
2017-09-21T10:21:31.741Z,32.00
2017-09-21T10:23:58.845Z,38.60
2017-09-21T10:26:25.692Z,36.93
2017-09-21T10:28:52.565Z,33.93
2017-09-21T10:31:19.459Z,35.03
2017-09-21T10:33:46.334Z,29.57
2017-09-21T10:36:13.468Z,31.90
2017-09-21T10:38:40.621Z,34.83
2017-09-21T10:41:07.459Z,33.57
2017-09-21T10:43:34.321Z,32.80
2017-09-21T10:46:01.451Z,30.07
2017-09-21T10:48:28.318Z,27.97
2017-09-21T10:50:55.161Z,28.93
2017-09-21T10:53:22.018Z,36.93
2017-09-21T10:55:48.853Z,31.43
2017-09-21T10:58:15.974Z,32.13
2017-09-21T11:00:42.824Z,30.90
2017-09-21T11:03:09.694Z,33.27
2017-09-21T11:05:36.553Z,40.50
2017-09-21T11:08:03.450Z,34.23
2017-09-21T11:10:30.286Z,27.50
2017-09-21T11:12:57.149Z,30.63
2017-09-21T11:15:24.029Z,36.37
2017-09-21T11:17:51.133Z,36.70
2017-09-21T11:20:18.214Z,30.23
2017-09-21T11:22:45.323Z,29.30
2017-09-21T11:25:12.193Z,28.87
2017-09-21T11:27:39.314Z,31.53
2017-09-21T11:30:06.185Z,34.50
2017-09-21T11:32:33.041Z,28.30
2017-09-21T11:34:59.897Z,30.50
2017-09-21T11:37:26.775Z,30.87
2017-09-21T11:39:54.125Z,36.50
2017-09-21T11:42:21.085Z,29.33
2017-09-21T11:44:48.244Z,28.00
2017-09-21T11:47:15.101Z,32.83
2017-09-21T11:49:41.941Z,23.17
2017-09-21T11:52:08.822Z,26.47
2017-09-21T11:54:35.921Z,27.33
2017-09-21T11:57:02.781Z,28.40
2017-09-21T11:59:29.674Z,30.90
2017-09-21T12:01:56.831Z,29.93
2017-09-21T12:04:23.982Z,29.13
2017-09-21T12:06:50.975Z,26.50
2017-09-21T12:09:17.899Z,28.00
2017-09-21T12:11:44.761Z,44.17
2017-09-21T12:14:12.111Z,29.07
2017-09-21T12:16:39.325Z,30.83
2017-09-21T12:19:06.395Z,34.93
2017-09-21T12:21:33.524Z,29.30
2017-09-21T12:24:00.981Z,27.97
2017-09-21T12:26:28.137Z,25.63
2017-09-21T12:28:55.399Z,30.67
2017-09-21T12:31:22.434Z,43.80
2017-09-21T12:33:49.513Z,40.57
2017-09-21T12:36:17.169Z,32.63
2017-09-21T12:38:44.178Z,28.03
2017-09-21T12:41:11.165Z,25.50
2017-09-21T12:43:38.239Z,30.03
2017-09-21T12:46:05.538Z,28.90
2017-09-21T12:48:32.885Z,31.80
2017-09-21T12:51:00.760Z,33.90
2017-09-21T12:53:28.119Z,28.50
2017-09-21T12:55:55.282Z,32.00
2017-09-21T12:58:25.284Z,27.80
2017-09-21T13:00:52.857Z,24.80
2017-09-21T13:03:19.993Z,24.73
2017-09-21T13:05:47.143Z,25.60
2017-09-21T13:08:15.199Z,22.37
2017-09-21T13:10:42.846Z,21.07
2017-09-21T13:13:09.862Z,24.00
2017-09-21T13:15:37.008Z,25.07
2017-09-21T13:18:04.123Z,26.03
2017-09-21T13:20:31.081Z,35.17
2017-09-21T13:22:58.251Z,30.47
2017-09-21T13:25:25.081Z,26.80
2017-09-21T13:27:52.242Z,31.87
2017-09-21T13:30:19.149Z,28.63
2017-09-21T13:32:46.102Z,31.10
2017-09-21T13:35:13.090Z,25.13
2017-09-21T13:37:40.028Z,24.20
2017-09-21T13:40:07.177Z,20.87
2017-09-21T13:42:34.098Z,37.27
2017-09-21T13:45:01.269Z,27.53
2017-09-21T13:47:28.142Z,26.17
2017-09-21T13:49:55.038Z,25.87
2017-09-21T13:52:22.138Z,38.93
2017-09-21T13:54:49.261Z,36.70
2017-09-21T13:57:16.159Z,34.43
2017-09-21T13:59:43.249Z,31.07
2017-09-21T14:02:10.321Z,34.60
2017-09-21T14:04:37.221Z,33.87
2017-09-21T14:07:04.077Z,34.37
2017-09-21T14:09:31.237Z,33.63
2017-09-21T14:14:43.246Z,42.83
2017-09-21T14:17:10.074Z,35.73
2017-09-21T14:19:36.903Z,38.43
2017-09-21T14:22:03.795Z,38.60
2017-09-21T14:24:30.616Z,38.87
2017-09-21T14:26:57.457Z,40.47
2017-09-21T14:29:24.310Z,45.93
2017-09-21T14:31:51.162Z,37.53
2017-09-21T14:34:18.007Z,29.07
2017-09-21T14:36:44.870Z,32.97
2017-09-21T14:39:11.726Z,36.20
2017-09-21T14:41:38.573Z,28.07
2017-09-21T14:44:05.417Z,36.43
2017-09-21T14:46:32.251Z,32.00
2017-09-21T14:48:59.465Z,32.47
2017-09-21T14:51:26.367Z,32.43
2017-09-21T14:53:53.213Z,31.00
2017-09-21T14:56:20.044Z,29.83
2017-09-21T14:58:46.897Z,26.30
2017-09-21T15:01:13.756Z,23.27
2017-09-21T15:03:40.819Z,31.43
2017-09-21T15:06:07.689Z,25.97
2017-09-21T15:08:34.817Z,35.90
2017-09-21T15:11:01.659Z,29.90
2017-09-21T15:13:28.507Z,30.60
2017-09-21T15:15:55.344Z,24.27
2017-09-21T15:18:22.194Z,28.13
2017-09-21T15:20:49.080Z,21.07
2017-09-21T15:23:15.953Z,21.23
2017-09-21T15:25:42.779Z,26.13
2017-09-21T15:28:09.643Z,24.73
2017-09-21T15:30:36.472Z,20.67
2017-09-21T15:33:03.395Z,20.00
2017-09-21T15:35:30.274Z,24.73
2017-09-21T15:37:57.132Z,21.23
2017-09-21T15:40:24.298Z,17.40
2017-09-21T15:42:51.456Z,28.00
2017-09-21T15:45:18.281Z,26.80
2017-09-21T15:47:45.118Z,38.23
2017-09-21T15:50:11.997Z,24.77
2017-09-21T15:52:38.824Z,29.90
2017-09-21T15:55:05.688Z,28.40
2017-09-21T15:57:32.560Z,32.33
2017-09-21T15:59:59.393Z,27.90
2017-09-21T16:02:26.267Z,29.90
2017-09-21T16:04:53.452Z,29.63
2017-09-21T16:07:20.305Z,29.37
2017-09-21T16:09:47.132Z,29.30
2017-09-21T16:12:13.992Z,30.23
2017-09-21T16:14:40.849Z,31.00
2017-09-21T16:17:07.732Z,36.00
2017-09-21T16:19:34.591Z,38.03
2017-09-21T16:22:01.753Z,27.60
2017-09-21T16:24:28.900Z,25.27
2017-09-21T16:26:55.726Z,28.40
2017-09-21T16:29:22.552Z,27.80
2017-09-21T16:31:49.368Z,29.07
2017-09-21T16:34:16.477Z,24.70
2017-09-21T16:36:43.528Z,25.13
2017-09-21T16:39:10.332Z,27.83
2017-09-21T16:41:37.183Z,24.70
2017-09-21T16:44:03.979Z,25.93
2017-09-21T16:46:30.787Z,25.80
2017-09-21T16:48:57.611Z,22.37
2017-09-21T16:51:24.413Z,23.43
2017-09-21T16:53:51.524Z,29.47
2017-09-21T16:56:18.704Z,23.00
2017-09-21T16:58:45.510Z,23.30
2017-09-21T17:01:12.320Z,22.87
2017-09-21T17:03:39.181Z,22.50
2017-09-21T17:06:06.208Z,22.43
2017-09-21T17:08:33.042Z,24.13
2017-09-21T17:11:00.149Z,24.33
2017-09-21T17:13:26.971Z,21.43
2017-09-21T17:15:54.035Z,25.10
2017-09-21T17:18:20.891Z,25.50
2017-09-21T17:20:47.693Z,28.00
2017-09-21T17:23:14.504Z,23.20
2017-09-21T17:25:41.614Z,24.73
2017-09-21T17:28:08.665Z,22.13
2017-09-21T17:30:35.460Z,20.60
2017-09-21T17:33:02.292Z,20.87
2017-09-21T17:35:29.402Z,26.43
2017-09-21T17:37:56.195Z,23.23
2017-09-21T17:40:23.293Z,25.00
2017-09-21T17:42:50.126Z,23.10
2017-09-21T17:45:17.179Z,29.20
2017-09-21T17:47:44.029Z,24.40
2017-09-21T17:50:10.840Z,27.60
2017-09-21T17:52:37.672Z,24.13
2017-09-21T17:55:04.752Z,25.80
2017-09-21T17:57:31.588Z,24.30
2017-09-21T17:59:58.383Z,21.03
2017-09-21T18:02:25.240Z,26.67
2017-09-21T18:04:52.032Z,20.70
2017-09-21T18:07:19.150Z,21.07
2017-09-21T18:09:46.009Z,22.33
2017-09-21T18:12:12.832Z,23.67
2017-09-21T18:14:39.667Z,27.60
2017-09-21T18:17:06.752Z,30.17
2017-09-21T18:19:33.623Z,26.67
2017-09-21T18:22:00.497Z,25.20
2017-09-21T18:24:27.588Z,22.00
2017-09-21T18:26:55.273Z,23.63
2017-09-21T18:29:22.103Z,19.33
2017-09-21T18:31:48.949Z,22.77
2017-09-21T18:34:15.752Z,28.40
2017-09-21T18:36:42.780Z,24.07
2017-09-21T18:39:09.865Z,32.83
2017-09-21T18:41:36.664Z,18.60
2017-09-21T18:44:03.479Z,26.63
2017-09-21T18:46:30.300Z,38.77
2017-09-21T18:48:57.149Z,36.30
2017-09-21T18:51:24.010Z,38.13
2017-09-21T18:53:50.869Z,35.20
2017-09-21T18:56:18.091Z,27.80
2017-09-21T18:58:44.924Z,29.83
2017-09-21T19:01:12.081Z,24.70
2017-09-21T19:03:38.884Z,23.50
2017-09-21T19:06:05.692Z,24.70
2017-09-21T19:08:32.564Z,22.00
2017-09-21T19:10:59.661Z,22.10
2017-09-21T19:13:26.492Z,22.47
2017-09-21T19:15:53.329Z,20.33
2017-09-21T19:18:20.156Z,28.63
2017-09-21T19:20:46.987Z,32.73
2017-09-21T19:23:13.832Z,27.97
2017-09-21T19:25:40.920Z,28.17
2017-09-21T19:28:07.740Z,26.37
2017-09-21T19:30:34.574Z,26.67
2017-09-21T19:33:01.401Z,27.40
2017-09-21T19:35:28.204Z,27.73
2017-09-21T19:37:55.065Z,31.60
2017-09-21T19:40:22.184Z,30.67
2017-09-21T19:42:49.342Z,31.40
2017-09-21T19:45:16.487Z,31.73
2017-09-21T19:47:43.643Z,38.33
2017-09-21T19:50:10.798Z,38.53
2017-09-21T19:52:37.679Z,27.27
2017-09-21T19:55:04.791Z,28.03
2017-09-21T19:57:31.934Z,33.50
2017-09-21T19:59:58.776Z,31.30
2017-09-21T20:02:25.576Z,38.10
2017-09-21T20:04:52.443Z,29.80
2017-09-21T20:07:19.610Z,30.87
2017-09-21T20:09:46.433Z,35.70
2017-09-21T20:12:13.500Z,42.37
2017-09-21T20:14:40.651Z,35.33
2017-09-21T20:17:07.492Z,36.37
2017-09-21T20:19:34.409Z,37.70
2017-09-21T20:22:01.460Z,29.97
2017-09-21T20:24:28.284Z,37.73
2017-09-21T20:26:55.131Z,34.67
2017-09-21T20:29:21.999Z,37.20
2017-09-21T20:31:48.881Z,32.30
2017-09-21T20:34:15.688Z,40.60
2017-09-21T20:36:42.537Z,32.57
2017-09-21T20:39:09.333Z,30.50
2017-09-21T20:41:36.433Z,30.57
2017-09-21T20:44:03.295Z,37.37
2017-09-21T20:46:30.104Z,32.13
2017-09-21T20:48:57.172Z,41.40
2017-09-21T20:51:24.032Z,39.13
2017-09-21T20:53:51.103Z,34.73
2017-09-21T20:56:18.329Z,34.93
2017-09-21T20:58:45.214Z,34.40
2017-09-21T21:01:12.044Z,48.53
2017-09-21T21:03:38.863Z,40.23
2017-09-21T21:06:05.736Z,48.00
2017-09-21T21:08:32.571Z,33.57
2017-09-21T21:10:59.385Z,41.47
2017-09-21T21:13:26.530Z,56.87
2017-09-21T21:15:53.348Z,50.33
2017-09-21T21:18:20.523Z,36.83
2017-09-21T21:20:47.384Z,36.33
2017-09-21T21:23:14.197Z,37.70
2017-09-21T21:25:41.000Z,43.30
2017-09-21T21:28:07.836Z,40.03
2017-09-21T21:30:34.939Z,32.70
2017-09-21T21:33:01.743Z,35.97
2017-09-21T21:35:28.638Z,45.90
2017-09-21T21:37:55.461Z,36.17
2017-09-21T21:40:22.536Z,42.60
2017-09-21T21:42:49.408Z,48.37
2017-09-21T21:45:16.509Z,45.30
2017-09-21T21:47:43.553Z,38.60
2017-09-21T21:50:10.708Z,50.80
2017-09-21T21:52:37.778Z,43.43
2017-09-21T21:55:04.609Z,53.00
2017-09-21T21:57:31.457Z,41.27
2017-09-21T21:59:58.284Z,47.50
2017-09-21T22:02:25.084Z,40.87
2017-09-21T22:04:51.944Z,38.10
2017-09-21T22:07:18.765Z,44.20
2017-09-21T22:09:45.592Z,45.20
2017-09-21T22:12:12.703Z,37.13
2017-09-21T22:14:39.528Z,35.77
2017-09-21T22:17:06.703Z,48.00
2017-09-21T22:19:33.852Z,54.47
2017-09-21T22:22:00.720Z,58.17
2017-09-21T22:24:27.544Z,53.13
2017-09-21T22:26:54.380Z,50.77
2017-09-21T22:29:21.198Z,44.30
2017-09-21T22:31:48.372Z,41.47
2017-09-21T22:34:15.224Z,51.87
2017-09-21T22:36:42.053Z,46.47
2017-09-21T22:39:09.207Z,41.33
2017-09-21T22:41:36.356Z,37.60
2017-09-21T22:44:03.180Z,49.47
2017-09-21T22:46:30.213Z,49.93
2017-09-21T22:48:57.070Z,45.60
2017-09-21T22:51:23.889Z,46.23
2017-09-21T22:53:50.720Z,48.23
2017-09-21T22:56:17.578Z,106.60
2017-09-21T22:58:44.404Z,90.37
2017-09-21T23:01:11.525Z,55.07
2017-09-21T23:03:38.392Z,65.90
2017-09-21T23:06:05.185Z,79.40
2017-09-21T23:08:32.011Z,64.90
2017-09-21T23:10:58.857Z,62.57
2017-09-21T23:13:25.659Z,59.67
2017-09-21T23:15:52.467Z,70.13
2017-09-21T23:18:19.623Z,150.20
2017-09-21T23:20:46.461Z,107.63
2017-09-21T23:23:13.260Z,96.83
2017-09-21T23:25:40.347Z,79.37
2017-09-21T23:28:07.160Z,74.70
2017-09-21T23:30:33.955Z,88.73
2017-09-21T23:33:00.847Z,77.70
2017-09-21T23:35:27.676Z,121.10
2017-09-21T23:37:54.476Z,79.57
2017-09-21T23:40:21.311Z,124.70
2017-09-21T23:42:48.457Z,138.23
2017-09-21T23:45:15.268Z,125.03
2017-09-21T23:47:42.153Z,183.33
2017-09-21T23:50:09.301Z,217.77
2017-09-21T23:52:36.448Z,173.83
2017-09-21T23:55:03.280Z,193.83
2017-09-21T23:57:30.440Z,164.37
2017-09-21T23:59:57.267Z,97.73
